sensor_id;sensor_type;location;lat;lon;timestamp;P1;durP1;ratioP1;P2;durP2;ratioP2
55732;SDS011;41637;52.364;9.910;2023-08-20T00:02:18;13.40;;;10.70;;
55732;SDS011;41637;52.364;9.910;2023-08-20T00:04:49;13.60;;;10.40;;
55732;SDS011;41637;52.364;9.910;2023-08-20T00:07:16;15.00;;;9.90;;
55732;SDS011;41637;52.364;9.910;2023-08-20T00:09:44;11.80;;;9.60;;
55732;SDS011;41637;52.364;9.910;2023-08-20T00:12:11;12.60;;;9.90;;
55732;SDS011;41637;52.364;9.910;2023-08-20T00:17:31;13.40;;;9.90;;
55732;SDS011;41637;52.364;9.910;2023-08-20T00:19:59;12.50;;;10.20;;
55732;SDS011;41637;52.364;9.910;2023-08-20T00:22:26;13.40;;;10.00;;
55732;SDS011;41637;52.364;9.910;2023-08-20T00:24:53;13.60;;;10.40;;
55732;SDS011;41637;52.364;9.910;2023-08-20T00:27:20;15.10;;;10.20;;
55732;SDS011;41637;52.364;9.910;2023-08-20T00:29:47;12.50;;;9.90;;
55732;SDS011;41637;52.364;9.910;2023-08-20T00:32:14;14.60;;;10.60;;
55732;SDS011;41637;52.364;9.910;2023-08-20T00:34:41;15.90;;;11.00;;
55732;SDS011;41637;52.364;9.910;2023-08-20T00:37:08;13.60;;;10.70;;
55732;SDS011;41637;52.364;9.910;2023-08-20T00:39:34;14.80;;;10.80;;
55732;SDS011;41637;52.364;9.910;2023-08-20T00:42:01;14.00;;;10.80;;
55732;SDS011;41637;52.364;9.910;2023-08-20T00:44:27;14.60;;;12.20;;
55732;SDS011;41637;52.364;9.910;2023-08-20T00:46:54;17.20;;;12.10;;
55732;SDS011;41637;52.364;9.910;2023-08-20T00:49:21;13.80;;;10.80;;
55732;SDS011;41637;52.364;9.910;2023-08-20T00:51:49;18.30;;;12.00;;
55732;SDS011;41637;52.364;9.910;2023-08-20T00:54:16;15.50;;;12.20;;
55732;SDS011;41637;52.364;9.910;2023-08-20T00:56:43;16.60;;;11.70;;
55732;SDS011;41637;52.364;9.910;2023-08-20T00:59:11;16.50;;;12.20;;
55732;SDS011;41637;52.364;9.910;2023-08-20T01:01:37;17.20;;;11.80;;
55732;SDS011;41637;52.364;9.910;2023-08-20T01:04:04;14.90;;;11.30;;
55732;SDS011;41637;52.364;9.910;2023-08-20T01:09:43;15.90;;;11.90;;
55732;SDS011;41637;52.364;9.910;2023-08-20T01:12:31;16.90;;;12.60;;
55732;SDS011;41637;52.364;9.910;2023-08-20T01:14:57;16.90;;;11.70;;
55732;SDS011;41637;52.364;9.910;2023-08-20T01:17:24;16.70;;;12.70;;
55732;SDS011;41637;52.364;9.910;2023-08-20T01:19:51;16.20;;;12.90;;
55732;SDS011;41637;52.364;9.910;2023-08-20T01:28:19;15.50;;;12.60;;
55732;SDS011;41637;52.364;9.910;2023-08-20T01:30:47;17.30;;;12.90;;
55732;SDS011;41637;52.364;9.910;2023-08-20T01:33:15;16.70;;;12.50;;
55732;SDS011;41637;52.364;9.910;2023-08-20T01:35:42;15.80;;;12.10;;
55732;SDS011;41637;52.364;9.910;2023-08-20T01:38:09;14.80;;;11.80;;
55732;SDS011;41637;52.364;9.910;2023-08-20T01:40:35;14.10;;;11.00;;
55732;SDS011;41637;52.364;9.910;2023-08-20T01:43:02;15.90;;;11.60;;
55732;SDS011;41637;52.364;9.910;2023-08-20T01:45:28;13.60;;;11.00;;
55732;SDS011;41637;52.364;9.910;2023-08-20T01:47:55;13.90;;;11.10;;
55732;SDS011;41637;52.364;9.910;2023-08-20T01:50:21;16.80;;;11.40;;
55732;SDS011;41637;52.364;9.910;2023-08-20T01:52:48;13.50;;;11.20;;
55732;SDS011;41637;52.364;9.910;2023-08-20T01:55:14;15.10;;;11.00;;
55732;SDS011;41637;52.364;9.910;2023-08-20T01:57:41;14.60;;;11.10;;
55732;SDS011;41637;52.364;9.910;2023-08-20T02:00:07;16.70;;;11.70;;
55732;SDS011;41637;52.364;9.910;2023-08-20T02:02:34;14.20;;;11.40;;
55732;SDS011;41637;52.364;9.910;2023-08-20T02:05:01;15.80;;;11.30;;
55732;SDS011;41637;52.364;9.910;2023-08-20T02:07:28;15.60;;;11.00;;
55732;SDS011;41637;52.364;9.910;2023-08-20T02:09:54;14.60;;;11.80;;
55732;SDS011;41637;52.364;9.910;2023-08-20T02:12:21;15.10;;;11.90;;
55732;SDS011;41637;52.364;9.910;2023-08-20T02:14:47;14.80;;;11.30;;
55732;SDS011;41637;52.364;9.910;2023-08-20T02:17:14;15.60;;;12.20;;
55732;SDS011;41637;52.364;9.910;2023-08-20T02:19:40;15.70;;;11.50;;
55732;SDS011;41637;52.364;9.910;2023-08-20T02:22:07;16.70;;;11.20;;
55732;SDS011;41637;52.364;9.910;2023-08-20T02:24:33;15.20;;;11.00;;
55732;SDS011;41637;52.364;9.910;2023-08-20T02:27:00;15.20;;;12.30;;
55732;SDS011;41637;52.364;9.910;2023-08-20T02:29:26;16.30;;;11.60;;
55732;SDS011;41637;52.364;9.910;2023-08-20T02:31:53;15.70;;;11.90;;
55732;SDS011;41637;52.364;9.910;2023-08-20T02:34:19;17.30;;;11.60;;
55732;SDS011;41637;52.364;9.910;2023-08-20T02:36:46;14.30;;;12.10;;
55732;SDS011;41637;52.364;9.910;2023-08-20T02:39:15;16.50;;;12.20;;
55732;SDS011;41637;52.364;9.910;2023-08-20T02:41:43;17.40;;;12.80;;
55732;SDS011;41637;52.364;9.910;2023-08-20T02:44:09;15.20;;;11.60;;
55732;SDS011;41637;52.364;9.910;2023-08-20T02:46:36;16.00;;;11.50;;
55732;SDS011;41637;52.364;9.910;2023-08-20T02:49:04;17.60;;;12.40;;
55732;SDS011;41637;52.364;9.910;2023-08-20T02:51:31;15.90;;;12.10;;
55732;SDS011;41637;52.364;9.910;2023-08-20T02:53:57;18.60;;;13.40;;
55732;SDS011;41637;52.364;9.910;2023-08-20T02:56:23;18.70;;;13.20;;
55732;SDS011;41637;52.364;9.910;2023-08-20T02:58:50;17.20;;;13.40;;
55732;SDS011;41637;52.364;9.910;2023-08-20T03:01:17;19.30;;;12.90;;
55732;SDS011;41637;52.364;9.910;2023-08-20T03:03:45;16.90;;;12.70;;
55732;SDS011;41637;52.364;9.910;2023-08-20T03:06:11;17.00;;;11.90;;
55732;SDS011;41637;52.364;9.910;2023-08-20T03:08:38;15.70;;;11.90;;
55732;SDS011;41637;52.364;9.910;2023-08-20T03:11:05;16.20;;;12.60;;
55732;SDS011;41637;52.364;9.910;2023-08-20T03:13:31;15.00;;;11.90;;
55732;SDS011;41637;52.364;9.910;2023-08-20T03:15:58;15.30;;;11.60;;
55732;SDS011;41637;52.364;9.910;2023-08-20T03:18:24;14.70;;;11.50;;
55732;SDS011;41637;52.364;9.910;2023-08-20T03:20:51;15.70;;;11.20;;
55732;SDS011;41637;52.364;9.910;2023-08-20T03:23:17;16.70;;;10.60;;
55732;SDS011;41637;52.364;9.910;2023-08-20T03:25:44;14.00;;;10.60;;
55732;SDS011;41637;52.364;9.910;2023-08-20T03:28:10;16.50;;;10.30;;
55732;SDS011;41637;52.364;9.910;2023-08-20T03:30:37;13.30;;;10.80;;
55732;SDS011;41637;52.364;9.910;2023-08-20T03:33:03;14.10;;;10.90;;
55732;SDS011;41637;52.364;9.910;2023-08-20T03:35:30;15.00;;;10.50;;
55732;SDS011;41637;52.364;9.910;2023-08-20T03:37:56;14.60;;;10.50;;
55732;SDS011;41637;52.364;9.910;2023-08-20T03:40:23;12.30;;;9.70;;
55732;SDS011;41637;52.364;9.910;2023-08-20T03:42:50;14.20;;;10.20;;
55732;SDS011;41637;52.364;9.910;2023-08-20T03:45:16;17.00;;;9.80;;
55732;SDS011;41637;52.364;9.910;2023-08-20T03:47:43;15.20;;;10.50;;
55732;SDS011;41637;52.364;9.910;2023-08-20T03:50:10;15.40;;;10.00;;
55732;SDS011;41637;52.364;9.910;2023-08-20T03:52:37;13.60;;;9.60;;
55732;SDS011;41637;52.364;9.910;2023-08-20T03:55:03;13.10;;;10.10;;
55732;SDS011;41637;52.364;9.910;2023-08-20T03:57:30;14.60;;;10.10;;
55732;SDS011;41637;52.364;9.910;2023-08-20T03:59:57;12.20;;;9.60;;
55732;SDS011;41637;52.364;9.910;2023-08-20T04:02:23;15.40;;;9.20;;
55732;SDS011;41637;52.364;9.910;2023-08-20T04:04:50;12.60;;;9.20;;
55732;SDS011;41637;52.364;9.910;2023-08-20T04:07:17;13.30;;;9.60;;
55732;SDS011;41637;52.364;9.910;2023-08-20T04:09:44;13.60;;;9.80;;
55732;SDS011;41637;52.364;9.910;2023-08-20T04:12:10;16.50;;;9.60;;
55732;SDS011;41637;52.364;9.910;2023-08-20T04:14:37;11.10;;;9.40;;
55732;SDS011;41637;52.364;9.910;2023-08-20T04:17:03;14.60;;;9.30;;
55732;SDS011;41637;52.364;9.910;2023-08-20T04:19:30;12.60;;;8.90;;
55732;SDS011;41637;52.364;9.910;2023-08-20T04:21:56;11.30;;;8.40;;
55732;SDS011;41637;52.364;9.910;2023-08-20T04:24:23;10.80;;;8.20;;
55732;SDS011;41637;52.364;9.910;2023-08-20T04:26:50;10.80;;;8.20;;
55732;SDS011;41637;52.364;9.910;2023-08-20T04:29:16;12.20;;;8.10;;
55732;SDS011;41637;52.364;9.910;2023-08-20T04:31:42;9.20;;;7.90;;
55732;SDS011;41637;52.364;9.910;2023-08-20T04:34:09;9.80;;;7.90;;
55732;SDS011;41637;52.364;9.910;2023-08-20T04:36:35;13.90;;;8.10;;
55732;SDS011;41637;52.364;9.910;2023-08-20T04:39:02;10.80;;;8.00;;
55732;SDS011;41637;52.364;9.910;2023-08-20T04:41:30;13.10;;;8.20;;
55732;SDS011;41637;52.364;9.910;2023-08-20T04:43:57;10.20;;;7.90;;
55732;SDS011;41637;52.364;9.910;2023-08-20T04:46:26;12.70;;;7.80;;
55732;SDS011;41637;52.364;9.910;2023-08-20T04:48:54;10.90;;;7.50;;
55732;SDS011;41637;52.364;9.910;2023-08-20T04:51:21;11.80;;;7.80;;
55732;SDS011;41637;52.364;9.910;2023-08-20T04:53:47;10.20;;;7.60;;
55732;SDS011;41637;52.364;9.910;2023-08-20T04:56:14;12.00;;;7.90;;
55732;SDS011;41637;52.364;9.910;2023-08-20T04:58:40;11.50;;;7.50;;
55732;SDS011;41637;52.364;9.910;2023-08-20T05:01:07;10.90;;;7.80;;
55732;SDS011;41637;52.364;9.910;2023-08-20T05:03:35;9.80;;;7.10;;
55732;SDS011;41637;52.364;9.910;2023-08-20T05:06:01;10.80;;;7.60;;
55732;SDS011;41637;52.364;9.910;2023-08-20T05:08:29;13.10;;;7.30;;
55732;SDS011;41637;52.364;9.910;2023-08-20T05:10:55;9.30;;;7.10;;
55732;SDS011;41637;52.364;9.910;2023-08-20T05:13:22;10.60;;;7.30;;
55732;SDS011;41637;52.364;9.910;2023-08-20T05:15:50;11.40;;;7.10;;
55732;SDS011;41637;52.364;9.910;2023-08-20T05:18:16;10.40;;;7.00;;
55732;SDS011;41637;52.364;9.910;2023-08-20T05:20:43;9.70;;;6.70;;
55732;SDS011;41637;52.364;9.910;2023-08-20T05:23:09;10.40;;;6.70;;
55732;SDS011;41637;52.364;9.910;2023-08-20T05:25:36;10.30;;;6.50;;
55732;SDS011;41637;52.364;9.910;2023-08-20T05:28:02;9.90;;;6.70;;
55732;SDS011;41637;52.364;9.910;2023-08-20T05:30:29;11.60;;;6.60;;
55732;SDS011;41637;52.364;9.910;2023-08-20T05:32:55;9.80;;;6.40;;
55732;SDS011;41637;52.364;9.910;2023-08-20T05:35:22;9.40;;;5.80;;
55732;SDS011;41637;52.364;9.910;2023-08-20T05:37:48;11.90;;;5.50;;
55732;SDS011;41637;52.364;9.910;2023-08-20T05:40:15;9.10;;;5.50;;
55732;SDS011;41637;52.364;9.910;2023-08-20T05:42:42;7.70;;;5.40;;
55732;SDS011;41637;52.364;9.910;2023-08-20T05:45:08;9.50;;;6.00;;
55732;SDS011;41637;52.364;9.910;2023-08-20T05:47:35;9.50;;;5.70;;
55732;SDS011;41637;52.364;9.910;2023-08-20T05:50:03;10.30;;;5.80;;
55732;SDS011;41637;52.364;9.910;2023-08-20T05:52:29;8.40;;;5.90;;
55732;SDS011;41637;52.364;9.910;2023-08-20T05:54:56;8.80;;;5.60;;
55732;SDS011;41637;52.364;9.910;2023-08-20T05:57:22;7.60;;;4.90;;
55732;SDS011;41637;52.364;9.910;2023-08-20T05:59:49;9.90;;;5.70;;
55732;SDS011;41637;52.364;9.910;2023-08-20T06:02:16;8.00;;;5.30;;
55732;SDS011;41637;52.364;9.910;2023-08-20T06:04:44;8.70;;;5.40;;
55732;SDS011;41637;52.364;9.910;2023-08-20T06:07:11;10.10;;;5.10;;
55732;SDS011;41637;52.364;9.910;2023-08-20T06:09:37;9.10;;;5.10;;
55732;SDS011;41637;52.364;9.910;2023-08-20T06:12:04;8.50;;;5.30;;
55732;SDS011;41637;52.364;9.910;2023-08-20T06:14:30;8.20;;;4.80;;
55732;SDS011;41637;52.364;9.910;2023-08-20T06:16:57;7.00;;;4.40;;
55732;SDS011;41637;52.364;9.910;2023-08-20T06:19:23;7.70;;;4.40;;
55732;SDS011;41637;52.364;9.910;2023-08-20T06:21:50;6.80;;;4.40;;
55732;SDS011;41637;52.364;9.910;2023-08-20T06:24:16;8.30;;;4.50;;
55732;SDS011;41637;52.364;9.910;2023-08-20T06:26:43;7.80;;;4.50;;
55732;SDS011;41637;52.364;9.910;2023-08-20T06:29:11;7.30;;;4.50;;
55732;SDS011;41637;52.364;9.910;2023-08-20T06:31:37;7.30;;;4.50;;
55732;SDS011;41637;52.364;9.910;2023-08-20T06:34:04;7.70;;;3.80;;
55732;SDS011;41637;52.364;9.910;2023-08-20T06:36:30;6.30;;;3.80;;
55732;SDS011;41637;52.364;9.910;2023-08-20T06:38:57;7.30;;;3.80;;
55732;SDS011;41637;52.364;9.910;2023-08-20T06:41:23;8.00;;;4.20;;
55732;SDS011;41637;52.364;9.910;2023-08-20T06:43:49;5.90;;;4.00;;
55732;SDS011;41637;52.364;9.910;2023-08-20T06:46:16;6.70;;;4.10;;
55732;SDS011;41637;52.364;9.910;2023-08-20T06:48:42;6.70;;;3.70;;
55732;SDS011;41637;52.364;9.910;2023-08-20T06:51:15;5.40;;;3.40;;
55732;SDS011;41637;52.364;9.910;2023-08-20T06:53:46;6.50;;;3.40;;
55732;SDS011;41637;52.364;9.910;2023-08-20T06:56:13;6.00;;;3.40;;
55732;SDS011;41637;52.364;9.910;2023-08-20T06:58:40;4.40;;;3.00;;
55732;SDS011;41637;52.364;9.910;2023-08-20T07:01:07;6.30;;;3.00;;
55732;SDS011;41637;52.364;9.910;2023-08-20T07:06:08;5.60;;;3.30;;
55732;SDS011;41637;52.364;9.910;2023-08-20T07:08:36;6.00;;;2.70;;
55732;SDS011;41637;52.364;9.910;2023-08-20T07:11:05;5.40;;;2.40;;
55732;SDS011;41637;52.364;9.910;2023-08-20T07:13:32;5.90;;;2.50;;
55732;SDS011;41637;52.364;9.910;2023-08-20T07:15:59;5.00;;;2.60;;
55732;SDS011;41637;52.364;9.910;2023-08-20T07:18:26;5.20;;;2.50;;
55732;SDS011;41637;52.364;9.910;2023-08-20T07:20:52;6.00;;;2.50;;
55732;SDS011;41637;52.364;9.910;2023-08-20T07:23:19;4.30;;;1.90;;
55732;SDS011;41637;52.364;9.910;2023-08-20T07:25:45;5.20;;;2.20;;
55732;SDS011;41637;52.364;9.910;2023-08-20T07:28:13;5.60;;;2.20;;
55732;SDS011;41637;52.364;9.910;2023-08-20T07:30:39;4.00;;;2.20;;
55732;SDS011;41637;52.364;9.910;2023-08-20T07:33:06;5.20;;;2.20;;
55732;SDS011;41637;52.364;9.910;2023-08-20T07:35:33;5.70;;;2.50;;
55732;SDS011;41637;52.364;9.910;2023-08-20T07:38:01;5.40;;;2.60;;
55732;SDS011;41637;52.364;9.910;2023-08-20T07:40:28;6.40;;;2.60;;
55732;SDS011;41637;52.364;9.910;2023-08-20T07:42:54;4.80;;;2.40;;
55732;SDS011;41637;52.364;9.910;2023-08-20T07:45:22;5.80;;;2.20;;
55732;SDS011;41637;52.364;9.910;2023-08-20T07:47:48;6.00;;;2.20;;
55732;SDS011;41637;52.364;9.910;2023-08-20T07:50:15;3.90;;;1.60;;
55732;SDS011;41637;52.364;9.910;2023-08-20T07:52:41;4.30;;;2.30;;
55732;SDS011;41637;52.364;9.910;2023-08-20T07:55:08;5.20;;;2.10;;
55732;SDS011;41637;52.364;9.910;2023-08-20T07:57:34;4.70;;;2.20;;
55732;SDS011;41637;52.364;9.910;2023-08-20T08:00:02;4.60;;;2.30;;
55732;SDS011;41637;52.364;9.910;2023-08-20T08:02:30;4.90;;;2.30;;
55732;SDS011;41637;52.364;9.910;2023-08-20T08:04:57;4.40;;;2.40;;
55732;SDS011;41637;52.364;9.910;2023-08-20T08:07:23;6.30;;;2.20;;
55732;SDS011;41637;52.364;9.910;2023-08-20T08:09:49;6.70;;;2.60;;
55732;SDS011;41637;52.364;9.910;2023-08-20T08:12:16;4.40;;;2.20;;
55732;SDS011;41637;52.364;9.910;2023-08-20T08:14:42;4.00;;;2.00;;
55732;SDS011;41637;52.364;9.910;2023-08-20T08:17:09;5.30;;;2.30;;
55732;SDS011;41637;52.364;9.910;2023-08-20T08:19:35;4.90;;;2.00;;
55732;SDS011;41637;52.364;9.910;2023-08-20T08:22:02;5.80;;;2.50;;
55732;SDS011;41637;52.364;9.910;2023-08-20T08:24:29;6.30;;;2.20;;
55732;SDS011;41637;52.364;9.910;2023-08-20T08:26:56;5.20;;;2.60;;
55732;SDS011;41637;52.364;9.910;2023-08-20T08:29:22;4.70;;;2.40;;
55732;SDS011;41637;52.364;9.910;2023-08-20T08:31:48;5.20;;;2.30;;
55732;SDS011;41637;52.364;9.910;2023-08-20T08:34:15;5.50;;;2.40;;
55732;SDS011;41637;52.364;9.910;2023-08-20T08:36:41;4.70;;;2.30;;
55732;SDS011;41637;52.364;9.910;2023-08-20T08:39:08;4.90;;;2.50;;
55732;SDS011;41637;52.364;9.910;2023-08-20T08:41:35;4.40;;;2.90;;
55732;SDS011;41637;52.364;9.910;2023-08-20T08:44:05;3.80;;;2.20;;
55732;SDS011;41637;52.364;9.910;2023-08-20T08:46:35;4.50;;;2.20;;
55732;SDS011;41637;52.364;9.910;2023-08-20T08:49:02;5.60;;;2.40;;
55732;SDS011;41637;52.364;9.910;2023-08-20T08:51:30;5.10;;;2.30;;
55732;SDS011;41637;52.364;9.910;2023-08-20T08:53:57;4.70;;;2.30;;
55732;SDS011;41637;52.364;9.910;2023-08-20T08:56:25;5.80;;;2.30;;
55732;SDS011;41637;52.364;9.910;2023-08-20T08:58:51;4.10;;;2.00;;
55732;SDS011;41637;52.364;9.910;2023-08-20T09:01:18;6.10;;;2.20;;
55732;SDS011;41637;52.364;9.910;2023-08-20T09:03:44;5.50;;;2.20;;
55732;SDS011;41637;52.364;9.910;2023-08-20T09:06:11;3.80;;;2.00;;
55732;SDS011;41637;52.364;9.910;2023-08-20T09:08:38;4.30;;;2.20;;
55732;SDS011;41637;52.364;9.910;2023-08-20T09:11:04;5.60;;;2.30;;
55732;SDS011;41637;52.364;9.910;2023-08-20T09:16:08;4.70;;;2.10;;
55732;SDS011;41637;52.364;9.910;2023-08-20T09:18:39;3.40;;;1.80;;
55732;SDS011;41637;52.364;9.910;2023-08-20T09:21:10;6.70;;;2.00;;
55732;SDS011;41637;52.364;9.910;2023-08-20T09:23:38;4.00;;;1.70;;
55732;SDS011;41637;52.364;9.910;2023-08-20T09:26:06;4.50;;;2.00;;
55732;SDS011;41637;52.364;9.910;2023-08-20T09:28:43;3.70;;;1.90;;
55732;SDS011;41637;52.364;9.910;2023-08-20T09:31:11;4.50;;;1.80;;
55732;SDS011;41637;52.364;9.910;2023-08-20T09:34:00;4.20;;;1.80;;
55732;SDS011;41637;52.364;9.910;2023-08-20T09:36:34;3.00;;;1.70;;
55732;SDS011;41637;52.364;9.910;2023-08-20T09:39:01;5.20;;;1.80;;
55732;SDS011;41637;52.364;9.910;2023-08-20T09:41:29;4.20;;;1.60;;
55732;SDS011;41637;52.364;9.910;2023-08-20T09:43:56;3.40;;;1.70;;
55732;SDS011;41637;52.364;9.910;2023-08-20T09:46:24;5.50;;;1.80;;
55732;SDS011;41637;52.364;9.910;2023-08-20T09:48:56;4.50;;;1.60;;
55732;SDS011;41637;52.364;9.910;2023-08-20T09:51:24;3.50;;;1.40;;
55732;SDS011;41637;52.364;9.910;2023-08-20T09:56:38;3.30;;;1.40;;
55732;SDS011;41637;52.364;9.910;2023-08-20T09:59:05;3.40;;;1.50;;
55732;SDS011;41637;52.364;9.910;2023-08-20T10:01:32;4.30;;;1.60;;
55732;SDS011;41637;52.364;9.910;2023-08-20T10:03:59;4.20;;;1.80;;
55732;SDS011;41637;52.364;9.910;2023-08-20T10:06:26;3.00;;;1.40;;
55732;SDS011;41637;52.364;9.910;2023-08-20T10:08:54;2.50;;;1.40;;
55732;SDS011;41637;52.364;9.910;2023-08-20T10:11:21;3.70;;;1.60;;
55732;SDS011;41637;52.364;9.910;2023-08-20T10:13:47;3.00;;;1.30;;
55732;SDS011;41637;52.364;9.910;2023-08-20T10:16:17;3.60;;;1.40;;
55732;SDS011;41637;52.364;9.910;2023-08-20T10:18:48;4.70;;;1.60;;
55732;SDS011;41637;52.364;9.910;2023-08-20T10:21:15;3.70;;;1.50;;
55732;SDS011;41637;52.364;9.910;2023-08-20T10:23:41;3.10;;;1.70;;
55732;SDS011;41637;52.364;9.910;2023-08-20T10:26:11;3.10;;;1.30;;
55732;SDS011;41637;52.364;9.910;2023-08-20T10:28:37;3.50;;;1.20;;
55732;SDS011;41637;52.364;9.910;2023-08-20T10:31:07;3.60;;;1.10;;
55732;SDS011;41637;52.364;9.910;2023-08-20T10:33:38;3.50;;;1.30;;
55732;SDS011;41637;52.364;9.910;2023-08-20T10:38:46;2.60;;;1.30;;
55732;SDS011;41637;52.364;9.910;2023-08-20T10:41:13;3.30;;;1.20;;
55732;SDS011;41637;52.364;9.910;2023-08-20T10:43:46;3.30;;;1.40;;
55732;SDS011;41637;52.364;9.910;2023-08-20T10:46:24;5.40;;;1.50;;
55732;SDS011;41637;52.364;9.910;2023-08-20T10:51:20;3.10;;;1.40;;
55732;SDS011;41637;52.364;9.910;2023-08-20T10:59:26;3.00;;;1.40;;
55732;SDS011;41637;52.364;9.910;2023-08-20T11:01:57;2.10;;;1.10;;
55732;SDS011;41637;52.364;9.910;2023-08-20T11:04:25;2.70;;;1.40;;
55732;SDS011;41637;52.364;9.910;2023-08-20T11:06:57;3.70;;;1.40;;
55732;SDS011;41637;52.364;9.910;2023-08-20T11:09:28;2.70;;;1.30;;
55732;SDS011;41637;52.364;9.910;2023-08-20T11:11:56;2.30;;;1.10;;
55732;SDS011;41637;52.364;9.910;2023-08-20T11:14:24;2.90;;;1.10;;
55732;SDS011;41637;52.364;9.910;2023-08-20T11:16:51;3.00;;;1.10;;
55732;SDS011;41637;52.364;9.910;2023-08-20T11:19:21;2.50;;;1.00;;
55732;SDS011;41637;52.364;9.910;2023-08-20T11:21:49;3.30;;;1.00;;
55732;SDS011;41637;52.364;9.910;2023-08-20T11:24:17;3.40;;;1.30;;
55732;SDS011;41637;52.364;9.910;2023-08-20T11:26:46;2.50;;;0.90;;
55732;SDS011;41637;52.364;9.910;2023-08-20T11:29:13;3.10;;;1.10;;
55732;SDS011;41637;52.364;9.910;2023-08-20T11:31:46;2.70;;;1.20;;
55732;SDS011;41637;52.364;9.910;2023-08-20T11:34:13;2.40;;;1.10;;
55732;SDS011;41637;52.364;9.910;2023-08-20T11:36:40;3.60;;;1.30;;
55732;SDS011;41637;52.364;9.910;2023-08-20T11:39:06;3.00;;;1.00;;
55732;SDS011;41637;52.364;9.910;2023-08-20T11:41:38;4.00;;;1.70;;
55732;SDS011;41637;52.364;9.910;2023-08-20T11:44:08;3.30;;;1.20;;
55732;SDS011;41637;52.364;9.910;2023-08-20T11:46:41;2.30;;;1.20;;
55732;SDS011;41637;52.364;9.910;2023-08-20T11:49:09;2.90;;;1.10;;
55732;SDS011;41637;52.364;9.910;2023-08-20T11:51:41;3.00;;;1.40;;
55732;SDS011;41637;52.364;9.910;2023-08-20T11:54:09;2.80;;;0.90;;
55732;SDS011;41637;52.364;9.910;2023-08-20T11:56:42;2.60;;;1.20;;
55732;SDS011;41637;52.364;9.910;2023-08-20T11:59:10;3.20;;;1.20;;
55732;SDS011;41637;52.364;9.910;2023-08-20T12:01:38;2.50;;;0.90;;
55732;SDS011;41637;52.364;9.910;2023-08-20T12:04:05;2.00;;;1.10;;
55732;SDS011;41637;52.364;9.910;2023-08-20T12:06:34;2.80;;;1.00;;
55732;SDS011;41637;52.364;9.910;2023-08-20T12:09:07;1.60;;;0.90;;
55732;SDS011;41637;52.364;9.910;2023-08-20T12:11:49;2.70;;;1.20;;
55732;SDS011;41637;52.364;9.910;2023-08-20T12:14:19;2.20;;;1.10;;
55732;SDS011;41637;52.364;9.910;2023-08-20T12:16:46;2.80;;;1.40;;
55732;SDS011;41637;52.364;9.910;2023-08-20T12:19:13;2.70;;;1.10;;
55732;SDS011;41637;52.364;9.910;2023-08-20T12:21:40;2.60;;;1.00;;
55732;SDS011;41637;52.364;9.910;2023-08-20T12:24:09;2.60;;;1.10;;
55732;SDS011;41637;52.364;9.910;2023-08-20T12:26:36;4.00;;;1.20;;
55732;SDS011;41637;52.364;9.910;2023-08-20T12:29:03;2.20;;;1.10;;
55732;SDS011;41637;52.364;9.910;2023-08-20T12:31:30;3.30;;;1.10;;
55732;SDS011;41637;52.364;9.910;2023-08-20T12:34:00;2.10;;;1.10;;
55732;SDS011;41637;52.364;9.910;2023-08-20T12:36:27;2.80;;;1.20;;
55732;SDS011;41637;52.364;9.910;2023-08-20T12:38:54;3.20;;;1.20;;
55732;SDS011;41637;52.364;9.910;2023-08-20T12:41:21;2.10;;;1.10;;
55732;SDS011;41637;52.364;9.910;2023-08-20T12:43:47;2.90;;;1.20;;
55732;SDS011;41637;52.364;9.910;2023-08-20T12:46:14;3.40;;;1.10;;
55732;SDS011;41637;52.364;9.910;2023-08-20T12:48:40;4.20;;;1.20;;
55732;SDS011;41637;52.364;9.910;2023-08-20T12:51:07;2.40;;;1.30;;
55732;SDS011;41637;52.364;9.910;2023-08-20T12:53:34;3.60;;;1.20;;
55732;SDS011;41637;52.364;9.910;2023-08-20T12:56:03;3.10;;;1.30;;
55732;SDS011;41637;52.364;9.910;2023-08-20T12:58:30;3.50;;;1.20;;
55732;SDS011;41637;52.364;9.910;2023-08-20T13:00:56;2.40;;;1.20;;
55732;SDS011;41637;52.364;9.910;2023-08-20T13:03:23;3.50;;;1.30;;
55732;SDS011;41637;52.364;9.910;2023-08-20T13:05:50;2.40;;;1.20;;
55732;SDS011;41637;52.364;9.910;2023-08-20T13:08:17;2.50;;;1.30;;
55732;SDS011;41637;52.364;9.910;2023-08-20T13:10:46;3.40;;;1.50;;
55732;SDS011;41637;52.364;9.910;2023-08-20T13:13:18;3.40;;;1.60;;
55732;SDS011;41637;52.364;9.910;2023-08-20T13:15:48;2.70;;;1.50;;
55732;SDS011;41637;52.364;9.910;2023-08-20T13:18:15;2.40;;;1.30;;
55732;SDS011;41637;52.364;9.910;2023-08-20T13:20:42;2.40;;;1.40;;
55732;SDS011;41637;52.364;9.910;2023-08-20T13:23:09;3.40;;;1.20;;
55732;SDS011;41637;52.364;9.910;2023-08-20T13:25:36;2.80;;;1.50;;
55732;SDS011;41637;52.364;9.910;2023-08-20T13:28:03;3.10;;;1.50;;
55732;SDS011;41637;52.364;9.910;2023-08-20T13:30:30;3.30;;;1.50;;
55732;SDS011;41637;52.364;9.910;2023-08-20T13:32:56;2.80;;;1.70;;
55732;SDS011;41637;52.364;9.910;2023-08-20T13:35:23;3.40;;;1.60;;
55732;SDS011;41637;52.364;9.910;2023-08-20T13:37:49;2.80;;;1.70;;
55732;SDS011;41637;52.364;9.910;2023-08-20T13:40:16;2.40;;;1.50;;
55732;SDS011;41637;52.364;9.910;2023-08-20T13:42:42;3.40;;;1.50;;
55732;SDS011;41637;52.364;9.910;2023-08-20T13:45:08;2.90;;;1.60;;
55732;SDS011;41637;52.364;9.910;2023-08-20T13:47:36;3.60;;;1.80;;
55732;SDS011;41637;52.364;9.910;2023-08-20T13:50:02;3.20;;;1.60;;
55732;SDS011;41637;52.364;9.910;2023-08-20T13:52:30;3.00;;;1.40;;
55732;SDS011;41637;52.364;9.910;2023-08-20T13:54:57;2.70;;;1.60;;
55732;SDS011;41637;52.364;9.910;2023-08-20T13:57:23;3.30;;;1.60;;
55732;SDS011;41637;52.364;9.910;2023-08-20T13:59:50;2.30;;;1.40;;
55732;SDS011;41637;52.364;9.910;2023-08-20T14:02:16;4.30;;;1.60;;
55732;SDS011;41637;52.364;9.910;2023-08-20T14:04:43;2.70;;;1.50;;
55732;SDS011;41637;52.364;9.910;2023-08-20T14:07:09;2.50;;;1.50;;
55732;SDS011;41637;52.364;9.910;2023-08-20T14:09:36;3.30;;;1.70;;
55732;SDS011;41637;52.364;9.910;2023-08-20T14:12:02;3.30;;;1.60;;
55732;SDS011;41637;52.364;9.910;2023-08-20T14:14:29;3.50;;;1.60;;
55732;SDS011;41637;52.364;9.910;2023-08-20T14:16:55;4.30;;;1.50;;
55732;SDS011;41637;52.364;9.910;2023-08-20T14:19:22;2.10;;;1.40;;
55732;SDS011;41637;52.364;9.910;2023-08-20T14:21:48;2.80;;;1.60;;
55732;SDS011;41637;52.364;9.910;2023-08-20T14:24:15;2.30;;;1.30;;
55732;SDS011;41637;52.364;9.910;2023-08-20T14:26:44;2.40;;;1.30;;
55732;SDS011;41637;52.364;9.910;2023-08-20T14:29:11;2.70;;;1.50;;
55732;SDS011;41637;52.364;9.910;2023-08-20T14:31:37;2.90;;;1.40;;
55732;SDS011;41637;52.364;9.910;2023-08-20T14:34:04;2.90;;;1.40;;
55732;SDS011;41637;52.364;9.910;2023-08-20T14:36:31;2.80;;;1.20;;
55732;SDS011;41637;52.364;9.910;2023-08-20T14:38:58;3.30;;;1.20;;
55732;SDS011;41637;52.364;9.910;2023-08-20T14:41:24;3.60;;;1.40;;
55732;SDS011;41637;52.364;9.910;2023-08-20T14:43:50;2.60;;;1.20;;
55732;SDS011;41637;52.364;9.910;2023-08-20T14:46:17;2.80;;;1.20;;
55732;SDS011;41637;52.364;9.910;2023-08-20T14:48:43;2.70;;;1.30;;
55732;SDS011;41637;52.364;9.910;2023-08-20T14:51:10;3.00;;;1.30;;
55732;SDS011;41637;52.364;9.910;2023-08-20T14:53:37;3.40;;;1.30;;
55732;SDS011;41637;52.364;9.910;2023-08-20T14:56:03;2.10;;;1.30;;
55732;SDS011;41637;52.364;9.910;2023-08-20T14:58:30;2.50;;;1.30;;
55732;SDS011;41637;52.364;9.910;2023-08-20T15:00:58;2.70;;;1.10;;
55732;SDS011;41637;52.364;9.910;2023-08-20T15:03:25;2.00;;;1.20;;
55732;SDS011;41637;52.364;9.910;2023-08-20T15:05:52;2.40;;;1.20;;
55732;SDS011;41637;52.364;9.910;2023-08-20T15:08:18;4.00;;;1.40;;
55732;SDS011;41637;52.364;9.910;2023-08-20T15:11:06;4.40;;;1.40;;
55732;SDS011;41637;52.364;9.910;2023-08-20T15:13:32;4.60;;;1.50;;